Forecasts are only available for sites displaying the forecast symbol.

Some water levels are actually in metres AHD (Australian Height Datum), click individual sites for more details.

Scroll for more >

River gauges, storages, and weirs in the Murray–Darling Basin

Type Locationsort ascending River Water level Flow Volume Release Water temp Salinity Rainfall
Weirs Yarrawonga Weir Upstream Murray 124.72 m 25/06/2019 6:00 Not measured Not measured Not measured Not measured Not measured 0.2 mm 24/06/2019 9:00 Full data
Weirs Yarrawonga Weir Downstream Murray 1.16 m 25/06/2019 4:30 6543 ML/Day 25/06/2019 4:30 Not measured Not measured 9.6°C 25/06/2019 4:30 46.1 μS/cm 25/06/2019 4:30 Not measured Full data
River Gauge Yarrawonga Main Channel Murray 122.92 m 17/06/2019 2:45 Not measured Not measured 50.0 ML/d24/06/2019 7:45 Not measured Not measured Not measured Full data
River Gauge Wilcania Darling 0.44 m 25/06/2019 3:45 232 ML/Day 25/06/2019 3:45 Not measured Not measured 10.5°C 25/06/2019 3:45 1160.4 μS/cm 25/06/2019 3:45 Not measured Full data
Weirs Wentworth Weir Murray 27.52 m 25/06/2019 3:45 Not measured Not measured 5064.0 ML/d24/06/2019 8:45 Not measured 108.0 μS/cm 24/06/2019 7:45 0.0 mm 31/01/2019 9:00 Full data
River Gauge Weir 32 Upstream Darling 0.95 m 25/06/2019 3:45 1 ML/Day 25/06/2019 3:45 Not measured Not measured 10.0°C 25/06/2019 3:45 1321.8 μS/cm 25/06/2019 3:45 Not measured Full data
River Gauge Wakool Junction Murray 2.45 m 25/06/2019 3:45 5693 ML/Day 25/06/2019 3:45 Not measured Not measured 8.9°C 25/06/2019 3:45 85.7 μS/cm 25/06/2019 3:45 Not measured Full data
River Gauge Wakool Canal Wakool -0.06 m 25/06/2019 3:45 Not measured Not measured 0.0 ML/d24/06/2019 8:45 Not measured Not measured Not measured Full data
Weirs Torrumbarry Weir Upstream Murray 85.75 m 25/06/2019 3:30 Not measured 34 GL 24/06/2019 8:45 Not measured 9.6°C 24/06/2019 8:45 83.6 μS/cm 25/06/2019 2:45 0.0 mm 23/06/2019 9:00 Full data
Weirs Torrumbarry Weir Downstream Murray 1.91 m 25/06/2019 3:45 5221 ML/Day 25/06/2019 3:45 Not measured Not measured 9.4°C 25/06/2019 3:45 83.6 μS/cm 25/06/2019 3:45 Not measured Full data
River Gauge Torrumbarry Headworks Murray 84.03 m 20/06/2019 5:00 Not measured Not measured 476.8 ML/d25/06/2019 3:45 Not measured Not measured Not measured Full data
River Gauge Tocumwal Murray 1.75 m 25/06/2019 3:45 6668 ML/Day 25/06/2019 3:45 Not measured Not measured 8.7°C 25/06/2019 3:45 48.5 μS/cm 25/06/2019 3:45 Not measured Full data
River Gauge Tauwitchere Barrage Murray 0.67 m 25/06/2019 4:45 Not measured Not measured Not measured Not measured Not measured Not measured Full data
River Gauge Tallandoon Mitta 2.39 m 25/06/2019 3:45 3729 ML/Day 25/06/2019 3:45 Not measured Not measured 8.6°C 25/06/2019 3:45 39.4 μS/cm 25/06/2019 3:45 Not measured Full data
River Gauge Swan Hill Murray 1.04 m 25/06/2019 3:45 4860 ML/Day 25/06/2019 3:45 Not measured Not measured 8.4°C 25/06/2019 3:45 72.8 μS/cm 25/06/2019 3:45 Not measured Full data
River Gauge Stoney Crossing Murray 1.39 m 25/06/2019 3:45 417 ML/Day 25/06/2019 3:45 Not measured 411.7 ML/d24/06/2019 7:45 9.0°C 25/06/2019 3:45 208.2 μS/cm 25/06/2019 3:45 Not measured Full data
Weirs Steven's Weir Upstream Wakool 3.94 m 25/06/2019 6:00 Not measured Not measured Not measured Not measured Not measured Not measured Full data
Weirs Steven's Weir Downstream Wakool 1.37 m 25/06/2019 3:45 1121 ML/Day 25/06/2019 3:45 Not measured Not measured 8.7°C 25/06/2019 3:45 55.7 μS/cm 25/06/2019 3:45 Not measured Full data
River Gauge Rufus River Murray 20.3 m 24/06/2019 7:45 Not measured Not measured 1835.0 ML/d24/06/2019 7:45 Not measured 141.4 μS/cm 25/06/2019 0:45 Not measured Full data
River Gauge Rochester Campaspe 1.69 m 25/06/2019 3:45 69 ML/Day 25/06/2019 3:45 Not measured Not measured 8.0°C 25/06/2019 3:45 574.3 μS/cm 25/06/2019 3:45 0.2 mm 24/06/2019 9:00 Full data
River Gauge Redcliffs Murray Not measured Not measured Not measured Not measured Not measured 110.3 μS/cm 25/06/2019 5:45 Not measured Full data
River Gauge Pinegrove Murray 1.14 m 25/06/2019 4:30 268 ML/Day 25/06/2019 4:30 Not measured Not measured 3.3°C 25/06/2019 4:30 75.4 μS/cm 25/06/2019 4:30 0.2 mm 24/06/2019 9:00 Full data
River Gauge Peechelba Ovens 127.4 m 25/06/2019 3:45 1970 ML/Day 25/06/2019 3:45 Not measured Not measured 6.8°C 25/06/2019 3:45 43.3 μS/cm 25/06/2019 3:45 Not measured Full data
River Gauge Murray Bridge Murray 0.57 m 25/06/2019 3:45 Not measured Not measured Not measured 11.6°C 25/06/2019 3:45 255.6 μS/cm 25/06/2019 3:45 Not measured Full data
River Gauge Mundoo Barrage Murray 0.72 m 24/06/2019 7:45 Not measured Not measured Not measured Not measured Not measured Not measured Full data
River Gauge Mulwala Canal Murray Not measured Not measured Not measured 0.0 ML/d24/06/2019 8:45 Not measured Not measured Not measured Full data
River Gauge Morgan Downstream Murray Not measured Not measured Not measured 2818.7 ML/d25/06/2019 3:45 Not measured 327.1 μS/cm 25/06/2019 0:45 Not measured Full data
Weirs Mildura Weir downstream Murray 30.98 m 25/06/2019 3:45 Not measured Not measured Not measured 10.6°C 25/06/2019 3:45 125.1 μS/cm 25/06/2019 3:45 Not measured Full data
Storage Menindee Lakes Darling Not measured Not measured 16 GL 24/06/2019 7:45 Not measured Not measured Not measured Not measured Full data
River Gauge McCoy Bridge Goulburn 1.48 m 25/06/2019 3:45 961 ML/Day 25/06/2019 3:45 Not measured Not measured 7.8°C 25/06/2019 3:45 88.1 μS/cm 25/06/2019 3:45 Not measured Full data
Weirs Lock 9 Upstream Murray 27.29 m 25/06/2019 3:45 Not measured Not measured Not measured 11.0°C 25/06/2019 3:45 96.8 μS/cm 25/06/2019 3:45 Not measured Full data
Weirs Lock 9 Downstream Murray 24.19 m 25/06/2019 4:45 Not measured Not measured Not measured Not measured Not measured Not measured Full data
Weirs Lock 8 Upstream Murray 24.19 m 25/06/2019 3:00 Not measured Not measured Not measured 11.4°C 25/06/2019 3:00 100.8 μS/cm 25/06/2019 3:00 Not measured Full data
Weirs Lock 7 Upstream Murray 21.97 m 25/06/2019 3:45 Not measured Not measured Not measured 10.9°C 25/06/2019 3:45 99.6 μS/cm 25/06/2019 3:45 Not measured Full data
Weirs Lock 7 Downstream Murray 19.85 m 25/06/2019 4:45 Not measured Not measured Not measured Not measured Not measured Not measured Full data
Weirs Lock 6 Upstream Murray 19.23 m 25/06/2019 3:45 Not measured Not measured Not measured 11.3°C 25/06/2019 3:45 152.3 μS/cm 25/06/2019 3:45 Not measured Full data
Weirs Lock 6 Downstream Murray 16.31 m 25/06/2019 4:45 Not measured Not measured Not measured Not measured Not measured Not measured Full data
Weirs Lock 5 Upstream Murray 16.32 m 25/06/2019 3:45 Not measured Not measured Not measured 11.1°C 25/06/2019 3:45 180.8 μS/cm 25/06/2019 3:45 Not measured Full data
Weirs Lock 5 Downstream Murray 13.3 m 25/06/2019 4:45 Not measured Not measured Not measured Not measured Not measured Not measured Full data
Weirs Lock 4 Upstream Murray 13.23 m 25/06/2019 4:45 Not measured Not measured Not measured Not measured Not measured Not measured Full data
Weirs Lock 4 Downstream Murray 10.25 m 25/06/2019 4:45 Not measured Not measured Not measured Not measured Not measured Not measured Full data
Weirs Lock 3 Upstream Murray 9.87 m 25/06/2019 4:45 Not measured Not measured Not measured Not measured Not measured Not measured Full data
Weirs Lock 3 Downstream Murray 6.28 m 25/06/2019 4:45 Not measured Not measured Not measured Not measured Not measured Not measured Full data
Weirs Lock 2 Upstream Murray 6.14 m 25/06/2019 3:45 Not measured Not measured Not measured 11.2°C 25/06/2019 3:45 317.1 μS/cm 25/06/2019 3:45 Not measured Full data
Weirs Lock 2 Downstream Murray 3.32 m 25/06/2019 4:45 Not measured Not measured Not measured Not measured Not measured Not measured Full data
Weirs Lock 1 Upstream Murray 3.23 m 25/06/2019 3:45 Not measured Not measured Not measured 11.2°C 25/06/2019 3:45 309.7 μS/cm 25/06/2019 3:45 Not measured Full data
Weirs Lock 1 Downstream Murray 0.59 m 25/06/2019 3:45 Not measured Not measured 3866.2 ML/d24/06/2019 7:45 Not measured Not measured Not measured Full data
Storage Lake Victoria Murray 23.25 m 25/06/2019 3:45 Not measured 270 GL 25/06/2019 3:45 Not measured 10.2°C 25/06/2019 3:45 150.8 μS/cm 25/06/2019 3:45 Not measured Full data
River Gauge Lake Alexandrina Murray 0.63 m 25/06/2019 5:45 Not measured 1532 GL 25/06/2019 5:45 Not measured Not measured 968.4 μS/cm 25/06/2019 4:45 Not measured Full data
River Gauge Lake Albert Murray 0.7 m 25/06/2019 5:45 Not measured 262 GL 25/06/2019 5:45 Not measured Not measured Not measured Not measured Full data
River Gauge Kerang Loddon 0.4 m 25/06/2019 3:45 261 ML/Day 25/06/2019 3:45 Not measured Not measured 8.1°C 25/06/2019 3:45 136.8 μS/cm 25/06/2019 3:45 Not measured Full data
River Gauge Jingellic Murray 2.19 m 25/06/2019 3:45 8817 ML/Day 25/06/2019 3:45 Not measured Not measured 5.0°C 25/06/2019 3:45 34.1 μS/cm 25/06/2019 3:45 0.0 mm 24/06/2019 9:00 Full data
Storage Hume Dam Murray 175.72 m 25/06/2019 6:30 Not measured 689 GL 25/06/2019 6:30 3110.0 ML/d24/06/2019 8:00 Not measured Not measured 0.0 mm 24/06/2019 9:00 Full data
River Gauge Hinnomunjie Mitta 0.87 m 25/06/2019 3:45 873 ML/Day 25/06/2019 3:45 Not measured Not measured 3.0°C 25/06/2019 3:45 32.9 μS/cm 25/06/2019 3:45 0.2 mm 24/06/2019 9:00 Full data
River Gauge Gulpa Creek Offtake Murray 2.24 m 25/06/2019 5:45 238 ML/Day 25/06/2019 5:45 Not measured Not measured Not measured Not measured Not measured Full data
River Gauge Frenchman Creek Murray 27.24 m 24/06/2019 7:45 Not measured Not measured 3083.5 ML/d24/06/2019 7:45 Not measured Not measured Not measured Full data
River Gauge Flow to South Australia Murray Not measured Not measured Not measured 4224.9 ML/d24/06/2019 7:45 Not measured Not measured Not measured Full data
Weirs Euston Weir Upstream Murray 47.34 m 24/06/2019 8:45 Not measured 33 GL 24/06/2019 7:45 Not measured Not measured Not measured 0.0 mm 21/02/2019 9:00 Full data
Weirs Euston Weir Downstream Murray 43.2 m 25/06/2019 3:45 7130 ML/Day 25/06/2019 3:45 Not measured Not measured 10.1°C 25/06/2019 3:45 89.9 μS/cm 25/06/2019 3:45 Not measured Full data
River Gauge Edward River Offtake Murray 2.28 m 25/06/2019 4:00 1396 ML/Day 25/06/2019 4:00 Not measured Not measured 8.5°C 25/06/2019 3:45 53.6 μS/cm 25/06/2019 3:45 Not measured Full data
River Gauge Edward Escape Wakool -0.08 m 24/06/2019 11:45 5 ML/Day 4/06/2019 19:15 Not measured Not measured 9.4°C 25/06/2019 3:45 76.2 μS/cm 25/06/2019 3:45 Not measured Full data
River Gauge Echuca Wharf Murray 86.39 m 25/06/2019 3:45 Not measured Not measured Not measured Not measured Not measured Not measured Full data
River Gauge Doctors Point Murray 2.03 m 25/06/2019 4:30 4518 ML/Day 25/06/2019 4:30 Not measured Not measured 9.1°C 25/06/2019 4:30 51.3 μS/cm 25/06/2019 4:30 Not measured Full data
Storage Dartmouth Dam Mitta 462.02 m 25/06/2019 6:15 Not measured 2473 GL 25/06/2019 6:15 Not measured Not measured Not measured Not measured Full data
River Gauge Corowa Murray 1.41 m 25/06/2019 4:30 4946 ML/Day 25/06/2019 4:30 Not measured Not measured 7.3°C 25/06/2019 4:30 50.0 μS/cm 25/06/2019 4:30 Not measured Full data
River Gauge Colignan Murray 1.88 m 25/06/2019 3:45 6252 ML/Day 25/06/2019 3:45 Not measured Not measured 9.8°C 25/06/2019 3:45 92.3 μS/cm 25/06/2019 3:45 Not measured Full data
River Gauge Colemans Mitta 2.02 m 25/06/2019 4:15 3529 ML/Day 25/06/2019 4:15 Not measured Not measured 9.5°C 25/06/2019 3:45 41.3 μS/cm 25/06/2019 3:45 Not measured Full data
River Gauge Burtundy Darling 0.5 m 25/06/2019 4:15 1 ML/Day 25/06/2019 4:15 Not measured Not measured 6.3°C 25/06/2019 4:15 7.3 μS/cm 9/04/2019 15:15 Not measured Full data
River Gauge Bringenbrong Bridge Murray 1.92 m 25/06/2019 6:30 6677 ML/Day 25/06/2019 6:30 Not measured Not measured Not measured Not measured Not measured Full data
River Gauge Biggara Murray 0.47 m 25/06/2019 4:30 558 ML/Day 25/06/2019 4:30 Not measured Not measured 2.6°C 25/06/2019 4:30 42.7 μS/cm 25/06/2019 4:30 0.0 mm 24/06/2019 9:00 Full data
River Gauge Barmah Choke Murray 1.9 m 25/06/2019 5:45 4651 ML/Day 25/06/2019 5:45 Not measured Not measured Not measured Not measured Not measured Full data
River Gauge Bandiana Kiewa 1.72 m 25/06/2019 3:45 1530 ML/Day 25/06/2019 3:45 Not measured Not measured 5.6°C 25/06/2019 3:45 29.8 μS/cm 25/06/2019 3:45 Not measured Full data
River Gauge Balranald Murrumbidgee 1.54 m 25/06/2019 3:45 1124 ML/Day 25/06/2019 3:45 Not measured Not measured 9.2°C 25/06/2019 3:45 161.8 μS/cm 25/06/2019 3:45 Not measured Full data
River Gauge Albury (Union Bridge) Murray 1.11 m 25/06/2019 4:30 Not measured Not measured Not measured 8.1°C 25/06/2019 4:30 49.8 μS/cm 25/06/2019 4:30 Not measured Full data